sensor_id;sensor_type;location;lat;lon;timestamp;pressure;altitude;pressure_sealevel;temperature
63220;BMP180;49320;52.512;13.448;2023-10-19T00:01:50;100098.00;;;14.80
63220;BMP180;49320;52.512;13.448;2023-10-19T00:04:17;100098.00;;;14.70
63220;BMP180;49320;52.512;13.448;2023-10-19T00:06:44;100104.00;;;14.70
63220;BMP180;49320;52.512;13.448;2023-10-19T00:09:11;100103.00;;;14.70
63220;BMP180;49320;52.512;13.448;2023-10-19T00:11:38;100107.00;;;14.70
63220;BMP180;49320;52.512;13.448;2023-10-19T00:14:07;100103.00;;;14.70
63220;BMP180;49320;52.512;13.448;2023-10-19T00:16:43;100096.00;;;14.70
63220;BMP180;49320;52.512;13.448;2023-10-19T00:19:29;100103.00;;;14.70
63220;BMP180;49320;52.512;13.448;2023-10-19T00:21:56;100086.00;;;14.80
63220;BMP180;49320;52.512;13.448;2023-10-19T00:24:35;100093.00;;;14.80
63220;BMP180;49320;52.512;13.448;2023-10-19T00:27:02;100067.00;;;14.80
63220;BMP180;49320;52.512;13.448;2023-10-19T00:29:36;100064.00;;;14.80
63220;BMP180;49320;52.512;13.448;2023-10-19T00:32:16;100060.00;;;14.80
63220;BMP180;49320;52.512;13.448;2023-10-19T00:34:45;100056.00;;;14.70
63220;BMP180;49320;52.512;13.448;2023-10-19T00:37:19;100048.00;;;14.80
63220;BMP180;49320;52.512;13.448;2023-10-19T00:39:55;100038.00;;;14.80
63220;BMP180;49320;52.512;13.448;2023-10-19T00:42:23;100040.00;;;14.80
63220;BMP180;49320;52.512;13.448;2023-10-19T00:44:52;100027.00;;;14.70
63220;BMP180;49320;52.512;13.448;2023-10-19T00:47:27;100025.00;;;14.70
63220;BMP180;49320;52.512;13.448;2023-10-19T00:50:02;100032.00;;;14.70
63220;BMP180;49320;52.512;13.448;2023-10-19T00:52:31;100009.00;;;14.60
63220;BMP180;49320;52.512;13.448;2023-10-19T00:54:58;100013.00;;;14.60
63220;BMP180;49320;52.512;13.448;2023-10-19T00:57:25;100000.00;;;14.60
63220;BMP180;49320;52.512;13.448;2023-10-19T01:00:03;100012.00;;;14.60
63220;BMP180;49320;52.512;13.448;2023-10-19T01:02:39;100013.00;;;14.60
63220;BMP180;49320;52.512;13.448;2023-10-19T01:05:13;100008.00;;;14.60
63220;BMP180;49320;52.512;13.448;2023-10-19T01:07:41;100007.00;;;14.60
63220;BMP180;49320;52.512;13.448;2023-10-19T01:10:09;100004.00;;;14.60
63220;BMP180;49320;52.512;13.448;2023-10-19T01:12:38;99999.00;;;14.60
63220;BMP180;49320;52.512;13.448;2023-10-19T01:15:10;99991.00;;;14.60
63220;BMP180;49320;52.512;13.448;2023-10-19T01:17:46;99983.00;;;14.60
63220;BMP180;49320;52.512;13.448;2023-10-19T01:20:21;99983.00;;;14.60
63220;BMP180;49320;52.512;13.448;2023-10-19T01:23:06;99983.00;;;14.60
63220;BMP180;49320;52.512;13.448;2023-10-19T01:25:50;99981.00;;;14.60
63220;BMP180;49320;52.512;13.448;2023-10-19T01:31:21;99964.00;;;14.50
63220;BMP180;49320;52.512;13.448;2023-10-19T01:33:59;99965.00;;;14.50
63220;BMP180;49320;52.512;13.448;2023-10-19T01:36:33;99969.00;;;14.50
63220;BMP180;49320;52.512;13.448;2023-10-19T01:39:09;99958.00;;;14.50
63220;BMP180;49320;52.512;13.448;2023-10-19T01:41:38;99952.00;;;14.50
63220;BMP180;49320;52.512;13.448;2023-10-19T01:44:08;99947.00;;;14.50
63220;BMP180;49320;52.512;13.448;2023-10-19T01:46:40;99940.00;;;14.50
63220;BMP180;49320;52.512;13.448;2023-10-19T01:49:07;99933.00;;;14.50
63220;BMP180;49320;52.512;13.448;2023-10-19T01:51:35;99934.00;;;14.50
63220;BMP180;49320;52.512;13.448;2023-10-19T01:54:07;99925.00;;;14.50
63220;BMP180;49320;52.512;13.448;2023-10-19T01:56:34;99920.00;;;14.50
63220;BMP180;49320;52.512;13.448;2023-10-19T01:59:04;99900.00;;;14.50
63220;BMP180;49320;52.512;13.448;2023-10-19T02:01:31;99903.00;;;14.40
63220;BMP180;49320;52.512;13.448;2023-10-19T02:04:04;99896.00;;;14.40
63220;BMP180;49320;52.512;13.448;2023-10-19T02:06:34;99898.00;;;14.50
63220;BMP180;49320;52.512;13.448;2023-10-19T02:09:10;99884.00;;;14.50
63220;BMP180;49320;52.512;13.448;2023-10-19T02:11:59;99893.00;;;14.40
63220;BMP180;49320;52.512;13.448;2023-10-19T02:14:27;99900.00;;;14.40
63220;BMP180;49320;52.512;13.448;2023-10-19T02:16:59;99891.00;;;14.50
63220;BMP180;49320;52.512;13.448;2023-10-19T02:19:29;99898.00;;;14.50
63220;BMP180;49320;52.512;13.448;2023-10-19T02:22:02;99890.00;;;14.50
63220;BMP180;49320;52.512;13.448;2023-10-19T02:24:35;99886.00;;;14.50
63220;BMP180;49320;52.512;13.448;2023-10-19T02:27:02;99887.00;;;14.50
63220;BMP180;49320;52.512;13.448;2023-10-19T02:29:29;99879.00;;;14.50
63220;BMP180;49320;52.512;13.448;2023-10-19T02:31:57;99868.00;;;14.50
63220;BMP180;49320;52.512;13.448;2023-10-19T02:34:30;99867.00;;;14.50
63220;BMP180;49320;52.512;13.448;2023-10-19T02:36:57;99870.00;;;14.60
63220;BMP180;49320;52.512;13.448;2023-10-19T02:39:24;99866.00;;;14.60
63220;BMP180;49320;52.512;13.448;2023-10-19T02:41:55;99859.00;;;14.60
63220;BMP180;49320;52.512;13.448;2023-10-19T02:44:23;99866.00;;;14.60
63220;BMP180;49320;52.512;13.448;2023-10-19T02:46:54;99854.00;;;14.60
63220;BMP180;49320;52.512;13.448;2023-10-19T02:49:27;99852.00;;;14.60
63220;BMP180;49320;52.512;13.448;2023-10-19T02:51:56;99838.00;;;14.60
63220;BMP180;49320;52.512;13.448;2023-10-19T02:54:29;99842.00;;;14.60
63220;BMP180;49320;52.512;13.448;2023-10-19T02:57:00;99840.00;;;14.60
63220;BMP180;49320;52.512;13.448;2023-10-19T02:59:27;99847.00;;;14.60
63220;BMP180;49320;52.512;13.448;2023-10-19T03:02:00;99847.00;;;14.60
63220;BMP180;49320;52.512;13.448;2023-10-19T03:04:29;99830.00;;;14.60
63220;BMP180;49320;52.512;13.448;2023-10-19T03:06:57;99821.00;;;14.60
63220;BMP180;49320;52.512;13.448;2023-10-19T03:09:24;99832.00;;;14.60
63220;BMP180;49320;52.512;13.448;2023-10-19T03:11:54;99818.00;;;14.60
63220;BMP180;49320;52.512;13.448;2023-10-19T03:14:51;99829.00;;;14.60
63220;BMP180;49320;52.512;13.448;2023-10-19T03:17:18;99809.00;;;14.60
63220;BMP180;49320;52.512;13.448;2023-10-19T03:19:45;99804.00;;;14.60
63220;BMP180;49320;52.512;13.448;2023-10-19T03:22:12;99811.00;;;14.60
63220;BMP180;49320;52.512;13.448;2023-10-19T03:24:41;99804.00;;;14.60
63220;BMP180;49320;52.512;13.448;2023-10-19T03:27:13;99807.00;;;14.60
63220;BMP180;49320;52.512;13.448;2023-10-19T03:29:46;99796.00;;;14.60
63220;BMP180;49320;52.512;13.448;2023-10-19T03:32:14;99793.00;;;14.60
63220;BMP180;49320;52.512;13.448;2023-10-19T03:34:42;99791.00;;;14.60
63220;BMP180;49320;52.512;13.448;2023-10-19T03:37:14;99791.00;;;14.60
63220;BMP180;49320;52.512;13.448;2023-10-19T03:39:42;99787.00;;;14.60
63220;BMP180;49320;52.512;13.448;2023-10-19T03:42:12;99782.00;;;14.60
63220;BMP180;49320;52.512;13.448;2023-10-19T03:44:41;99774.00;;;14.60
63220;BMP180;49320;52.512;13.448;2023-10-19T03:47:08;99777.00;;;14.60
63220;BMP180;49320;52.512;13.448;2023-10-19T03:49:39;99758.00;;;14.60
63220;BMP180;49320;52.512;13.448;2023-10-19T03:52:07;99758.00;;;14.60
63220;BMP180;49320;52.512;13.448;2023-10-19T03:54:38;99758.00;;;14.60
63220;BMP180;49320;52.512;13.448;2023-10-19T03:57:14;99752.00;;;14.60
63220;BMP180;49320;52.512;13.448;2023-10-19T03:59:47;99757.00;;;14.60
63220;BMP180;49320;52.512;13.448;2023-10-19T04:02:19;99764.00;;;14.60
63220;BMP180;49320;52.512;13.448;2023-10-19T04:04:56;99753.00;;;14.60
63220;BMP180;49320;52.512;13.448;2023-10-19T04:07:24;99757.00;;;14.60
63220;BMP180;49320;52.512;13.448;2023-10-19T04:09:57;99752.00;;;14.60
63220;BMP180;49320;52.512;13.448;2023-10-19T04:12:38;99756.00;;;14.60
63220;BMP180;49320;52.512;13.448;2023-10-19T04:15:09;99748.00;;;14.60
63220;BMP180;49320;52.512;13.448;2023-10-19T04:17:38;99739.00;;;14.60
63220;BMP180;49320;52.512;13.448;2023-10-19T04:20:07;99735.00;;;14.60
63220;BMP180;49320;52.512;13.448;2023-10-19T04:22:50;99733.00;;;14.60
63220;BMP180;49320;52.512;13.448;2023-10-19T04:25:18;99725.00;;;14.60
63220;BMP180;49320;52.512;13.448;2023-10-19T04:27:47;99730.00;;;14.60
63220;BMP180;49320;52.512;13.448;2023-10-19T04:30:16;99729.00;;;14.60
63220;BMP180;49320;52.512;13.448;2023-10-19T04:32:45;99726.00;;;14.60
63220;BMP180;49320;52.512;13.448;2023-10-19T04:35:13;99724.00;;;14.60
63220;BMP180;49320;52.512;13.448;2023-10-19T04:37:41;99725.00;;;14.60
63220;BMP180;49320;52.512;13.448;2023-10-19T04:40:11;99725.00;;;14.60
63220;BMP180;49320;52.512;13.448;2023-10-19T04:42:38;99716.00;;;14.50
63220;BMP180;49320;52.512;13.448;2023-10-19T04:45:05;99711.00;;;14.50
63220;BMP180;49320;52.512;13.448;2023-10-19T04:47:33;99706.00;;;14.50
63220;BMP180;49320;52.512;13.448;2023-10-19T04:50:07;99703.00;;;14.50
63220;BMP180;49320;52.512;13.448;2023-10-19T04:52:34;99697.00;;;14.50
63220;BMP180;49320;52.512;13.448;2023-10-19T04:55:01;99703.00;;;14.40
63220;BMP180;49320;52.512;13.448;2023-10-19T04:57:29;99696.00;;;14.40
63220;BMP180;49320;52.512;13.448;2023-10-19T04:59:57;99693.00;;;14.40
63220;BMP180;49320;52.512;13.448;2023-10-19T05:02:24;99690.00;;;14.40
63220;BMP180;49320;52.512;13.448;2023-10-19T05:04:51;99686.00;;;14.40
63220;BMP180;49320;52.512;13.448;2023-10-19T05:07:18;99679.00;;;14.40
63220;BMP180;49320;52.512;13.448;2023-10-19T05:09:46;99682.00;;;14.30
63220;BMP180;49320;52.512;13.448;2023-10-19T05:12:16;99688.00;;;14.30
63220;BMP180;49320;52.512;13.448;2023-10-19T05:14:43;99692.00;;;14.30
63220;BMP180;49320;52.512;13.448;2023-10-19T05:17:10;99684.00;;;14.30
63220;BMP180;49320;52.512;13.448;2023-10-19T05:19:39;99681.00;;;14.30
63220;BMP180;49320;52.512;13.448;2023-10-19T05:22:09;99676.00;;;14.30
63220;BMP180;49320;52.512;13.448;2023-10-19T05:24:36;99663.00;;;14.30
63220;BMP180;49320;52.512;13.448;2023-10-19T05:27:03;99659.00;;;14.20
63220;BMP180;49320;52.512;13.448;2023-10-19T05:29:33;99668.00;;;14.20
63220;BMP180;49320;52.512;13.448;2023-10-19T05:32:00;99652.00;;;14.20
63220;BMP180;49320;52.512;13.448;2023-10-19T05:34:29;99670.00;;;14.20
63220;BMP180;49320;52.512;13.448;2023-10-19T05:36:58;99669.00;;;14.20
63220;BMP180;49320;52.512;13.448;2023-10-19T05:39:29;99669.00;;;14.20
63220;BMP180;49320;52.512;13.448;2023-10-19T05:41:58;99672.00;;;14.10
63220;BMP180;49320;52.512;13.448;2023-10-19T05:44:31;99678.00;;;14.10
63220;BMP180;49320;52.512;13.448;2023-10-19T05:46:59;99690.00;;;14.10
63220;BMP180;49320;52.512;13.448;2023-10-19T05:49:27;99695.00;;;14.20
63220;BMP180;49320;52.512;13.448;2023-10-19T05:51:55;99691.00;;;14.20
63220;BMP180;49320;52.512;13.448;2023-10-19T05:54:22;99688.00;;;14.20
63220;BMP180;49320;52.512;13.448;2023-10-19T05:56:51;99699.00;;;14.30
63220;BMP180;49320;52.512;13.448;2023-10-19T05:59:18;99690.00;;;14.30
63220;BMP180;49320;52.512;13.448;2023-10-19T06:01:45;99690.00;;;14.30
63220;BMP180;49320;52.512;13.448;2023-10-19T06:04:15;99692.00;;;14.30
63220;BMP180;49320;52.512;13.448;2023-10-19T06:06:47;99687.00;;;14.30
63220;BMP180;49320;52.512;13.448;2023-10-19T06:09:16;99691.00;;;14.30
63220;BMP180;49320;52.512;13.448;2023-10-19T06:11:44;99674.00;;;14.30
63220;BMP180;49320;52.512;13.448;2023-10-19T06:14:11;99681.00;;;14.30
63220;BMP180;49320;52.512;13.448;2023-10-19T06:16:37;99674.00;;;14.30
63220;BMP180;49320;52.512;13.448;2023-10-19T06:19:05;99666.00;;;14.20
63220;BMP180;49320;52.512;13.448;2023-10-19T06:21:32;99661.00;;;14.20
63220;BMP180;49320;52.512;13.448;2023-10-19T06:24:00;99655.00;;;14.20
63220;BMP180;49320;52.512;13.448;2023-10-19T06:26:28;99646.00;;;14.10
63220;BMP180;49320;52.512;13.448;2023-10-19T06:28:55;99649.00;;;14.10
63220;BMP180;49320;52.512;13.448;2023-10-19T06:31:26;99650.00;;;14.10
63220;BMP180;49320;52.512;13.448;2023-10-19T06:33:53;99662.00;;;14.10
63220;BMP180;49320;52.512;13.448;2023-10-19T06:36:20;99644.00;;;14.10
63220;BMP180;49320;52.512;13.448;2023-10-19T06:38:47;99647.00;;;14.10
63220;BMP180;49320;52.512;13.448;2023-10-19T06:41:17;99638.00;;;14.10
63220;BMP180;49320;52.512;13.448;2023-10-19T06:43:45;99643.00;;;14.20
63220;BMP180;49320;52.512;13.448;2023-10-19T06:46:12;99634.00;;;14.20
63220;BMP180;49320;52.512;13.448;2023-10-19T06:48:39;99632.00;;;14.20
63220;BMP180;49320;52.512;13.448;2023-10-19T06:51:07;99628.00;;;14.20
63220;BMP180;49320;52.512;13.448;2023-10-19T06:53:34;99623.00;;;14.10
63220;BMP180;49320;52.512;13.448;2023-10-19T06:56:01;99625.00;;;14.10
63220;BMP180;49320;52.512;13.448;2023-10-19T06:58:28;99627.00;;;14.20
63220;BMP180;49320;52.512;13.448;2023-10-19T07:00:55;99619.00;;;14.10
63220;BMP180;49320;52.512;13.448;2023-10-19T07:03:32;99609.00;;;14.20
63220;BMP180;49320;52.512;13.448;2023-10-19T07:05:59;99614.00;;;14.20
63220;BMP180;49320;52.512;13.448;2023-10-19T07:08:34;99613.00;;;14.20
63220;BMP180;49320;52.512;13.448;2023-10-19T07:11:01;99610.00;;;14.10
63220;BMP180;49320;52.512;13.448;2023-10-19T07:13:28;99615.00;;;14.20
63220;BMP180;49320;52.512;13.448;2023-10-19T07:15:57;99607.00;;;14.20
63220;BMP180;49320;52.512;13.448;2023-10-19T07:18:25;99598.00;;;14.20
63220;BMP180;49320;52.512;13.448;2023-10-19T07:20:52;99607.00;;;14.20
63220;BMP180;49320;52.512;13.448;2023-10-19T07:23:19;99602.00;;;14.30
63220;BMP180;49320;52.512;13.448;2023-10-19T07:25:49;99594.00;;;14.30
63220;BMP180;49320;52.512;13.448;2023-10-19T07:28:24;99598.00;;;14.30
63220;BMP180;49320;52.512;13.448;2023-10-19T07:30:53;99584.00;;;14.40
63220;BMP180;49320;52.512;13.448;2023-10-19T07:33:20;99592.00;;;14.40
63220;BMP180;49320;52.512;13.448;2023-10-19T07:35:49;99594.00;;;14.50
63220;BMP180;49320;52.512;13.448;2023-10-19T07:38:22;99594.00;;;14.50
63220;BMP180;49320;52.512;13.448;2023-10-19T07:40:50;99593.00;;;14.60
63220;BMP180;49320;52.512;13.448;2023-10-19T07:43:21;99603.00;;;14.60
63220;BMP180;49320;52.512;13.448;2023-10-19T07:45:49;99604.00;;;14.70
63220;BMP180;49320;52.512;13.448;2023-10-19T07:48:17;99616.00;;;14.70
63220;BMP180;49320;52.512;13.448;2023-10-19T07:50:44;99616.00;;;14.80
63220;BMP180;49320;52.512;13.448;2023-10-19T07:53:11;99615.00;;;14.80
63220;BMP180;49320;52.512;13.448;2023-10-19T07:55:38;99616.00;;;14.90
63220;BMP180;49320;52.512;13.448;2023-10-19T07:58:06;99609.00;;;14.90
63220;BMP180;49320;52.512;13.448;2023-10-19T08:00:33;99607.00;;;14.90
63220;BMP180;49320;52.512;13.448;2023-10-19T08:03:02;99599.00;;;14.90
63220;BMP180;49320;52.512;13.448;2023-10-19T08:05:30;99603.00;;;14.90
63220;BMP180;49320;52.512;13.448;2023-10-19T08:07:57;99606.00;;;15.00
63220;BMP180;49320;52.512;13.448;2023-10-19T08:10:27;99601.00;;;15.00
63220;BMP180;49320;52.512;13.448;2023-10-19T08:12:54;99601.00;;;15.00
63220;BMP180;49320;52.512;13.448;2023-10-19T08:15:22;99607.00;;;15.10
63220;BMP180;49320;52.512;13.448;2023-10-19T08:17:50;99603.00;;;15.10
63220;BMP180;49320;52.512;13.448;2023-10-19T08:20:21;99599.00;;;15.10
63220;BMP180;49320;52.512;13.448;2023-10-19T08:22:54;99595.00;;;15.10
63220;BMP180;49320;52.512;13.448;2023-10-19T08:25:25;99587.00;;;15.10
63220;BMP180;49320;52.512;13.448;2023-10-19T08:28:15;99583.00;;;15.20
63220;BMP180;49320;52.512;13.448;2023-10-19T08:30:42;99584.00;;;15.20
63220;BMP180;49320;52.512;13.448;2023-10-19T08:33:11;99572.00;;;15.20
63220;BMP180;49320;52.512;13.448;2023-10-19T08:35:41;99571.00;;;15.20
63220;BMP180;49320;52.512;13.448;2023-10-19T08:38:08;99580.00;;;15.20
63220;BMP180;49320;52.512;13.448;2023-10-19T08:40:39;99569.00;;;15.30
63220;BMP180;49320;52.512;13.448;2023-10-19T08:43:07;99572.00;;;15.30
63220;BMP180;49320;52.512;13.448;2023-10-19T08:45:41;99555.00;;;15.30
63220;BMP180;49320;52.512;13.448;2023-10-19T08:48:08;99548.00;;;15.30
63220;BMP180;49320;52.512;13.448;2023-10-19T08:50:35;99536.00;;;15.40
63220;BMP180;49320;52.512;13.448;2023-10-19T08:53:10;99545.00;;;15.40
63220;BMP180;49320;52.512;13.448;2023-10-19T08:55:36;99555.00;;;15.50
63220;BMP180;49320;52.512;13.448;2023-10-19T08:58:15;99556.00;;;15.50
63220;BMP180;49320;52.512;13.448;2023-10-19T09:00:46;99548.00;;;15.50
63220;BMP180;49320;52.512;13.448;2023-10-19T09:03:18;99555.00;;;15.60
63220;BMP180;49320;52.512;13.448;2023-10-19T09:05:46;99553.00;;;15.60
63220;BMP180;49320;52.512;13.448;2023-10-19T09:08:18;99541.00;;;15.60
63220;BMP180;49320;52.512;13.448;2023-10-19T09:10:49;99554.00;;;15.60
63220;BMP180;49320;52.512;13.448;2023-10-19T09:13:18;99542.00;;;15.70
63220;BMP180;49320;52.512;13.448;2023-10-19T09:15:47;99541.00;;;15.70
63220;BMP180;49320;52.512;13.448;2023-10-19T09:18:23;99551.00;;;15.80
63220;BMP180;49320;52.512;13.448;2023-10-19T09:20:52;99541.00;;;15.90
63220;BMP180;49320;52.512;13.448;2023-10-19T09:23:21;99540.00;;;16.00
63220;BMP180;49320;52.512;13.448;2023-10-19T09:25:50;99530.00;;;16.00
63220;BMP180;49320;52.512;13.448;2023-10-19T09:28:16;99529.00;;;16.00
63220;BMP180;49320;52.512;13.448;2023-10-19T09:30:44;99524.00;;;16.00
63220;BMP180;49320;52.512;13.448;2023-10-19T09:33:13;99520.00;;;16.00
63220;BMP180;49320;52.512;13.448;2023-10-19T09:35:40;99517.00;;;16.10
63220;BMP180;49320;52.512;13.448;2023-10-19T09:38:10;99526.00;;;16.10
63220;BMP180;49320;52.512;13.448;2023-10-19T09:40:37;99519.00;;;16.10
63220;BMP180;49320;52.512;13.448;2023-10-19T09:43:08;99513.00;;;16.20
63220;BMP180;49320;52.512;13.448;2023-10-19T09:45:41;99513.00;;;16.20
63220;BMP180;49320;52.512;13.448;2023-10-19T09:48:09;99523.00;;;16.20
63220;BMP180;49320;52.512;13.448;2023-10-19T09:50:53;99518.00;;;16.20
63220;BMP180;49320;52.512;13.448;2023-10-19T09:53:29;99519.00;;;16.30
63220;BMP180;49320;52.512;13.448;2023-10-19T09:55:59;99521.00;;;16.30
63220;BMP180;49320;52.512;13.448;2023-10-19T09:58:36;99526.00;;;16.30
63220;BMP180;49320;52.512;13.448;2023-10-19T10:01:05;99521.00;;;16.30
63220;BMP180;49320;52.512;13.448;2023-10-19T10:03:52;99514.00;;;16.30
63220;BMP180;49320;52.512;13.448;2023-10-19T10:06:56;99509.00;;;16.30
63220;BMP180;49320;52.512;13.448;2023-10-19T10:09:21;99505.00;;;16.30
63220;BMP180;49320;52.512;13.448;2023-10-19T10:11:52;99508.00;;;16.30
63220;BMP180;49320;52.512;13.448;2023-10-19T10:14:25;99500.00;;;16.30
63220;BMP180;49320;52.512;13.448;2023-10-19T10:17:03;99501.00;;;16.30
63220;BMP180;49320;52.512;13.448;2023-10-19T10:19:31;99506.00;;;16.30
63220;BMP180;49320;52.512;13.448;2023-10-19T10:22:10;99498.00;;;16.40
63220;BMP180;49320;52.512;13.448;2023-10-19T10:24:43;99494.00;;;16.40
63220;BMP180;49320;52.512;13.448;2023-10-19T10:27:10;99500.00;;;16.40
63220;BMP180;49320;52.512;13.448;2023-10-19T10:30:00;99493.00;;;16.40
63220;BMP180;49320;52.512;13.448;2023-10-19T10:32:53;99497.00;;;16.40
63220;BMP180;49320;52.512;13.448;2023-10-19T10:38:07;99486.00;;;16.30
63220;BMP180;49320;52.512;13.448;2023-10-19T10:40:49;99474.00;;;16.20
63220;BMP180;49320;52.512;13.448;2023-10-19T10:43:18;99473.00;;;16.20
63220;BMP180;49320;52.512;13.448;2023-10-19T10:45:45;99474.00;;;16.20
63220;BMP180;49320;52.512;13.448;2023-10-19T10:48:13;99468.00;;;16.20
63220;BMP180;49320;52.512;13.448;2023-10-19T10:50:41;99455.00;;;16.10
63220;BMP180;49320;52.512;13.448;2023-10-19T10:53:12;99464.00;;;16.10
63220;BMP180;49320;52.512;13.448;2023-10-19T10:55:40;99467.00;;;16.10
63220;BMP180;49320;52.512;13.448;2023-10-19T10:58:07;99462.00;;;16.10
63220;BMP180;49320;52.512;13.448;2023-10-19T11:00:34;99476.00;;;16.20
63220;BMP180;49320;52.512;13.448;2023-10-19T11:03:08;99468.00;;;16.20
63220;BMP180;49320;52.512;13.448;2023-10-19T11:05:37;99460.00;;;16.20
63220;BMP180;49320;52.512;13.448;2023-10-19T11:08:11;99466.00;;;16.20
63220;BMP180;49320;52.512;13.448;2023-10-19T11:10:45;99462.00;;;16.20
63220;BMP180;49320;52.512;13.448;2023-10-19T11:13:22;99457.00;;;16.20
63220;BMP180;49320;52.512;13.448;2023-10-19T11:15:52;99472.00;;;16.20
63220;BMP180;49320;52.512;13.448;2023-10-19T11:18:39;99471.00;;;16.20
63220;BMP180;49320;52.512;13.448;2023-10-19T11:21:09;99471.00;;;16.10
63220;BMP180;49320;52.512;13.448;2023-10-19T11:23:47;99467.00;;;16.20
63220;BMP180;49320;52.512;13.448;2023-10-19T11:26:19;99460.00;;;16.10
63220;BMP180;49320;52.512;13.448;2023-10-19T11:28:47;99438.00;;;16.10
63220;BMP180;49320;52.512;13.448;2023-10-19T11:31:23;99455.00;;;16.10
63220;BMP180;49320;52.512;13.448;2023-10-19T11:33:52;99442.00;;;16.00
63220;BMP180;49320;52.512;13.448;2023-10-19T11:36:21;99436.00;;;16.00
63220;BMP180;49320;52.512;13.448;2023-10-19T11:38:51;99440.00;;;15.90
63220;BMP180;49320;52.512;13.448;2023-10-19T11:41:21;99437.00;;;15.90
63220;BMP180;49320;52.512;13.448;2023-10-19T11:43:48;99432.00;;;15.80
63220;BMP180;49320;52.512;13.448;2023-10-19T11:46:18;99423.00;;;15.80
63220;BMP180;49320;52.512;13.448;2023-10-19T11:48:46;99424.00;;;15.80
63220;BMP180;49320;52.512;13.448;2023-10-19T11:51:13;99420.00;;;15.80
63220;BMP180;49320;52.512;13.448;2023-10-19T11:53:42;99420.00;;;15.80
63220;BMP180;49320;52.512;13.448;2023-10-19T11:56:13;99421.00;;;15.80
63220;BMP180;49320;52.512;13.448;2023-10-19T11:58:40;99409.00;;;15.70
63220;BMP180;49320;52.512;13.448;2023-10-19T12:01:10;99410.00;;;15.70
63220;BMP180;49320;52.512;13.448;2023-10-19T12:03:41;99406.00;;;15.70
63220;BMP180;49320;52.512;13.448;2023-10-19T12:06:09;99415.00;;;15.70
63220;BMP180;49320;52.512;13.448;2023-10-19T12:08:37;99414.00;;;15.70
63220;BMP180;49320;52.512;13.448;2023-10-19T12:11:05;99414.00;;;15.80
63220;BMP180;49320;52.512;13.448;2023-10-19T12:13:43;99416.00;;;15.80
63220;BMP180;49320;52.512;13.448;2023-10-19T12:16:14;99419.00;;;15.90
63220;BMP180;49320;52.512;13.448;2023-10-19T12:18:46;99428.00;;;15.90
63220;BMP180;49320;52.512;13.448;2023-10-19T12:21:15;99418.00;;;16.00
63220;BMP180;49320;52.512;13.448;2023-10-19T12:23:46;99402.00;;;16.00
63220;BMP180;49320;52.512;13.448;2023-10-19T12:26:21;99409.00;;;16.00
63220;BMP180;49320;52.512;13.448;2023-10-19T12:28:48;99405.00;;;16.00
63220;BMP180;49320;52.512;13.448;2023-10-19T12:31:16;99408.00;;;16.10
63220;BMP180;49320;52.512;13.448;2023-10-19T12:33:46;99402.00;;;16.00
63220;BMP180;49320;52.512;13.448;2023-10-19T12:36:13;99398.00;;;16.00
63220;BMP180;49320;52.512;13.448;2023-10-19T12:38:58;99394.00;;;16.00
63220;BMP180;49320;52.512;13.448;2023-10-19T12:41:25;99399.00;;;16.00
63220;BMP180;49320;52.512;13.448;2023-10-19T12:43:52;99393.00;;;16.00
63220;BMP180;49320;52.512;13.448;2023-10-19T12:46:19;99403.00;;;16.00
63220;BMP180;49320;52.512;13.448;2023-10-19T12:48:48;99401.00;;;16.00
63220;BMP180;49320;52.512;13.448;2023-10-19T12:51:15;99403.00;;;15.90
63220;BMP180;49320;52.512;13.448;2023-10-19T12:53:44;99410.00;;;15.90
63220;BMP180;49320;52.512;13.448;2023-10-19T12:56:12;99399.00;;;15.90
63220;BMP180;49320;52.512;13.448;2023-10-19T12:58:40;99397.00;;;15.80
63220;BMP180;49320;52.512;13.448;2023-10-19T13:01:08;99392.00;;;15.80
63220;BMP180;49320;52.512;13.448;2023-10-19T13:03:47;99397.00;;;15.80
63220;BMP180;49320;52.512;13.448;2023-10-19T13:06:17;99386.00;;;15.70
63220;BMP180;49320;52.512;13.448;2023-10-19T13:08:44;99391.00;;;15.70
63220;BMP180;49320;52.512;13.448;2023-10-19T13:11:10;99399.00;;;15.70
63220;BMP180;49320;52.512;13.448;2023-10-19T13:13:45;99408.00;;;15.70
63220;BMP180;49320;52.512;13.448;2023-10-19T13:16:13;99410.00;;;15.70
63220;BMP180;49320;52.512;13.448;2023-10-19T13:18:40;99400.00;;;15.70
63220;BMP180;49320;52.512;13.448;2023-10-19T13:21:08;99400.00;;;15.70
63220;BMP180;49320;52.512;13.448;2023-10-19T13:23:43;99394.00;;;15.60
63220;BMP180;49320;52.512;13.448;2023-10-19T13:26:10;99395.00;;;15.60
63220;BMP180;49320;52.512;13.448;2023-10-19T13:28:45;99396.00;;;15.60
63220;BMP180;49320;52.512;13.448;2023-10-19T13:31:12;99403.00;;;15.50
63220;BMP180;49320;52.512;13.448;2023-10-19T13:33:42;99399.00;;;15.50
63220;BMP180;49320;52.512;13.448;2023-10-19T13:36:12;99392.00;;;15.40
63220;BMP180;49320;52.512;13.448;2023-10-19T13:38:42;99382.00;;;15.40
63220;BMP180;49320;52.512;13.448;2023-10-19T13:41:09;99382.00;;;15.40
63220;BMP180;49320;52.512;13.448;2023-10-19T13:43:39;99365.00;;;15.40
63220;BMP180;49320;52.512;13.448;2023-10-19T13:46:06;99371.00;;;15.40
63220;BMP180;49320;52.512;13.448;2023-10-19T13:48:34;99374.00;;;15.30
63220;BMP180;49320;52.512;13.448;2023-10-19T13:51:00;99362.00;;;15.40
63220;BMP180;49320;52.512;13.448;2023-10-19T13:53:32;99365.00;;;15.40
63220;BMP180;49320;52.512;13.448;2023-10-19T13:55:59;99374.00;;;15.40
63220;BMP180;49320;52.512;13.448;2023-10-19T13:58:26;99377.00;;;15.50
63220;BMP180;49320;52.512;13.448;2023-10-19T14:00:53;99374.00;;;15.50
63220;BMP180;49320;52.512;13.448;2023-10-19T14:03:19;99367.00;;;15.50
63220;BMP180;49320;52.512;13.448;2023-10-19T14:05:48;99358.00;;;15.50
63220;BMP180;49320;52.512;13.448;2023-10-19T14:08:17;99363.00;;;15.50
63220;BMP180;49320;52.512;13.448;2023-10-19T14:10:44;99369.00;;;15.50
63220;BMP180;49320;52.512;13.448;2023-10-19T14:13:12;99383.00;;;15.50
63220;BMP180;49320;52.512;13.448;2023-10-19T14:15:39;99379.00;;;15.50
63220;BMP180;49320;52.512;13.448;2023-10-19T14:18:06;99362.00;;;15.50
63220;BMP180;49320;52.512;13.448;2023-10-19T14:20:34;99371.00;;;15.50